Goodfield, Illinois
Current Conditions -  °F | °C
As of 9:56 PM on Thursday 20 Nov 2014 (Local Time) from KBMI Reporting Station
Clear Clear  
Wind Chill: 10°   Ceiling: Unl
Heat Index: 20°   Visibility: 10mi
Dew Point:   Wind: 9mph
Humidity: 62%   Direction: 310°NW
Pressure: 30.3"   Gusts: NA
Location:  40.63°N, 89.27°W
Report Text: KBMI 210356Z 31008KT 10SM CLR M07/M13 A3030 RMK AO2 T10661127 SLP283
Loading
Personal Weather Stations






























Interactive Weather Map New forecast layout! Learn more

10-Day Weather Forecast

Advertisements
Track Severe Weather on mobile